sensor_id;sensor_type;location;lat;lon;timestamp;temperature;humidity
6986;DHT22;3533;51.246;6.850;2024-01-11T00:00:36;18.90;34.20
6986;DHT22;3533;51.246;6.850;2024-01-11T00:03:02;18.90;34.20
6986;DHT22;3533;51.246;6.850;2024-01-11T00:05:28;18.90;34.20
6986;DHT22;3533;51.246;6.850;2024-01-11T00:07:54;18.90;34.20
6986;DHT22;3533;51.246;6.850;2024-01-11T00:10:20;18.90;34.20
6986;DHT22;3533;51.246;6.850;2024-01-11T00:12:46;18.90;34.20
6986;DHT22;3533;51.246;6.850;2024-01-11T00:15:12;18.90;34.10
6986;DHT22;3533;51.246;6.850;2024-01-11T00:17:38;18.80;34.10
6986;DHT22;3533;51.246;6.850;2024-01-11T00:20:03;18.90;34.10
6986;DHT22;3533;51.246;6.850;2024-01-11T00:22:29;18.80;34.10
6986;DHT22;3533;51.246;6.850;2024-01-11T00:24:54;18.90;34.20
6986;DHT22;3533;51.246;6.850;2024-01-11T00:27:20;18.90;34.10
6986;DHT22;3533;51.246;6.850;2024-01-11T00:29:46;18.80;34.10
6986;DHT22;3533;51.246;6.850;2024-01-11T00:32:11;18.90;34.10
6986;DHT22;3533;51.246;6.850;2024-01-11T00:34:37;18.80;34.00
6986;DHT22;3533;51.246;6.850;2024-01-11T00:37:03;18.80;34.10
6986;DHT22;3533;51.246;6.850;2024-01-11T00:39:29;18.80;34.10
6986;DHT22;3533;51.246;6.850;2024-01-11T00:41:55;18.90;34.00
6986;DHT22;3533;51.246;6.850;2024-01-11T00:44:20;18.90;34.10
6986;DHT22;3533;51.246;6.850;2024-01-11T00:46:46;18.80;34.00
6986;DHT22;3533;51.246;6.850;2024-01-11T00:49:11;18.80;34.00
6986;DHT22;3533;51.246;6.850;2024-01-11T00:51:37;18.90;34.10
6986;DHT22;3533;51.246;6.850;2024-01-11T00:54:02;18.80;34.00
6986;DHT22;3533;51.246;6.850;2024-01-11T00:56:28;18.80;34.10
6986;DHT22;3533;51.246;6.850;2024-01-11T00:58:53;18.90;34.10
6986;DHT22;3533;51.246;6.850;2024-01-11T01:01:19;18.80;34.10
6986;DHT22;3533;51.246;6.850;2024-01-11T01:03:45;18.80;34.00
6986;DHT22;3533;51.246;6.850;2024-01-11T01:06:10;18.80;34.10
6986;DHT22;3533;51.246;6.850;2024-01-11T01:08:36;18.90;34.10
6986;DHT22;3533;51.246;6.850;2024-01-11T01:11:02;18.80;34.10
6986;DHT22;3533;51.246;6.850;2024-01-11T01:13:27;18.80;34.00
6986;DHT22;3533;51.246;6.850;2024-01-11T01:15:53;18.80;34.00
6986;DHT22;3533;51.246;6.850;2024-01-11T01:18:18;18.80;34.00
6986;DHT22;3533;51.246;6.850;2024-01-11T01:20:44;18.80;34.00
6986;DHT22;3533;51.246;6.850;2024-01-11T01:23:09;18.80;34.00
6986;DHT22;3533;51.246;6.850;2024-01-11T01:25:35;18.80;34.00
6986;DHT22;3533;51.246;6.850;2024-01-11T01:28:00;18.80;34.00
6986;DHT22;3533;51.246;6.850;2024-01-11T01:30:27;18.80;34.00
6986;DHT22;3533;51.246;6.850;2024-01-11T01:32:53;18.80;34.00
6986;DHT22;3533;51.246;6.850;2024-01-11T01:35:18;18.80;34.00
6986;DHT22;3533;51.246;6.850;2024-01-11T01:37:44;18.80;34.00
6986;DHT22;3533;51.246;6.850;2024-01-11T01:40:10;18.80;34.00
6986;DHT22;3533;51.246;6.850;2024-01-11T01:42:44;18.80;34.00
6986;DHT22;3533;51.246;6.850;2024-01-11T01:45:10;18.80;34.00
6986;DHT22;3533;51.246;6.850;2024-01-11T01:47:37;18.80;34.00
6986;DHT22;3533;51.246;6.850;2024-01-11T01:50:05;18.80;34.00
6986;DHT22;3533;51.246;6.850;2024-01-11T01:52:31;18.80;34.00
6986;DHT22;3533;51.246;6.850;2024-01-11T01:54:58;18.80;33.90
6986;DHT22;3533;51.246;6.850;2024-01-11T01:57:24;18.80;34.00
6986;DHT22;3533;51.246;6.850;2024-01-11T01:59:51;18.80;33.90
6986;DHT22;3533;51.246;6.850;2024-01-11T02:02:19;18.80;34.00
6986;DHT22;3533;51.246;6.850;2024-01-11T02:04:45;18.80;33.90
6986;DHT22;3533;51.246;6.850;2024-01-11T02:07:11;18.80;33.90
6986;DHT22;3533;51.246;6.850;2024-01-11T02:09:36;18.80;33.90
6986;DHT22;3533;51.246;6.850;2024-01-11T02:12:03;18.80;34.00
6986;DHT22;3533;51.246;6.850;2024-01-11T02:14:28;18.80;33.80
6986;DHT22;3533;51.246;6.850;2024-01-11T02:16:54;18.80;33.80
6986;DHT22;3533;51.246;6.850;2024-01-11T02:19:20;18.80;33.80
6986;DHT22;3533;51.246;6.850;2024-01-11T02:21:46;18.80;34.00
6986;DHT22;3533;51.246;6.850;2024-01-11T02:24:13;18.80;33.90
6986;DHT22;3533;51.246;6.850;2024-01-11T02:27:01;18.80;33.80
6986;DHT22;3533;51.246;6.850;2024-01-11T02:29:28;18.80;33.90
6986;DHT22;3533;51.246;6.850;2024-01-11T02:31:55;18.80;33.90
6986;DHT22;3533;51.246;6.850;2024-01-11T02:34:23;18.80;34.00
6986;DHT22;3533;51.246;6.850;2024-01-11T02:36:49;18.80;33.90
6986;DHT22;3533;51.246;6.850;2024-01-11T02:39:16;18.80;33.90
6986;DHT22;3533;51.246;6.850;2024-01-11T02:41:44;18.80;33.90
6986;DHT22;3533;51.246;6.850;2024-01-11T02:44:10;18.80;33.90
6986;DHT22;3533;51.246;6.850;2024-01-11T02:46:35;18.80;33.90
6986;DHT22;3533;51.246;6.850;2024-01-11T02:49:01;18.80;33.90
6986;DHT22;3533;51.246;6.850;2024-01-11T02:51:26;18.80;33.90
6986;DHT22;3533;51.246;6.850;2024-01-11T02:53:52;18.80;33.90
6986;DHT22;3533;51.246;6.850;2024-01-11T02:56:18;18.80;33.80
6986;DHT22;3533;51.246;6.850;2024-01-11T02:58:43;18.80;33.90
6986;DHT22;3533;51.246;6.850;2024-01-11T03:01:09;18.80;33.90
6986;DHT22;3533;51.246;6.850;2024-01-11T03:03:34;18.80;33.80
6986;DHT22;3533;51.246;6.850;2024-01-11T03:06:01;18.80;33.90
6986;DHT22;3533;51.246;6.850;2024-01-11T03:08:26;18.80;33.80
6986;DHT22;3533;51.246;6.850;2024-01-11T03:10:52;18.80;33.80
6986;DHT22;3533;51.246;6.850;2024-01-11T03:13:17;18.80;33.80
6986;DHT22;3533;51.246;6.850;2024-01-11T03:15:43;18.80;33.80
6986;DHT22;3533;51.246;6.850;2024-01-11T03:18:09;18.80;33.80
6986;DHT22;3533;51.246;6.850;2024-01-11T03:20:35;18.80;33.80
6986;DHT22;3533;51.246;6.850;2024-01-11T03:23:00;18.80;33.80
6986;DHT22;3533;51.246;6.850;2024-01-11T03:25:26;18.80;33.80
6986;DHT22;3533;51.246;6.850;2024-01-11T03:27:51;18.80;33.90
6986;DHT22;3533;51.246;6.850;2024-01-11T03:30:17;18.80;33.90
6986;DHT22;3533;51.246;6.850;2024-01-11T03:32:42;18.80;33.90
6986;DHT22;3533;51.246;6.850;2024-01-11T03:35:08;18.80;33.90
6986;DHT22;3533;51.246;6.850;2024-01-11T03:37:34;18.80;34.00
6986;DHT22;3533;51.246;6.850;2024-01-11T03:40:01;18.80;34.00
6986;DHT22;3533;51.246;6.850;2024-01-11T03:42:27;18.80;34.10
6986;DHT22;3533;51.246;6.850;2024-01-11T03:44:53;18.80;34.00
6986;DHT22;3533;51.246;6.850;2024-01-11T03:47:18;18.80;34.00
6986;DHT22;3533;51.246;6.850;2024-01-11T03:49:44;18.80;34.00
6986;DHT22;3533;51.246;6.850;2024-01-11T03:52:09;18.80;34.00
6986;DHT22;3533;51.246;6.850;2024-01-11T03:54:35;18.80;34.10
6986;DHT22;3533;51.246;6.850;2024-01-11T03:57:01;18.80;34.10
6986;DHT22;3533;51.246;6.850;2024-01-11T03:59:26;18.80;34.10
6986;DHT22;3533;51.246;6.850;2024-01-11T04:01:52;18.80;34.10
6986;DHT22;3533;51.246;6.850;2024-01-11T04:04:18;18.80;34.20
6986;DHT22;3533;51.246;6.850;2024-01-11T04:06:44;18.80;34.20
6986;DHT22;3533;51.246;6.850;2024-01-11T04:09:10;18.80;35.00
6986;DHT22;3533;51.246;6.850;2024-01-11T04:11:36;18.80;34.20
6986;DHT22;3533;51.246;6.850;2024-01-11T04:14:01;18.80;34.20
6986;DHT22;3533;51.246;6.850;2024-01-11T04:16:27;18.80;34.20
6986;DHT22;3533;51.246;6.850;2024-01-11T04:18:53;18.80;34.20
6986;DHT22;3533;51.246;6.850;2024-01-11T04:21:26;18.80;34.20
6986;DHT22;3533;51.246;6.850;2024-01-11T04:23:58;18.80;34.20
6986;DHT22;3533;51.246;6.850;2024-01-11T04:26:24;18.80;34.20
6986;DHT22;3533;51.246;6.850;2024-01-11T04:28:49;18.80;34.20
6986;DHT22;3533;51.246;6.850;2024-01-11T04:31:16;18.80;34.20
6986;DHT22;3533;51.246;6.850;2024-01-11T04:33:46;18.80;34.20
6986;DHT22;3533;51.246;6.850;2024-01-11T04:36:12;18.80;34.20
6986;DHT22;3533;51.246;6.850;2024-01-11T04:38:38;18.80;34.30
6986;DHT22;3533;51.246;6.850;2024-01-11T04:41:14;18.80;34.20
6986;DHT22;3533;51.246;6.850;2024-01-11T04:43:40;18.80;34.30
6986;DHT22;3533;51.246;6.850;2024-01-11T04:46:16;18.80;34.20
6986;DHT22;3533;51.246;6.850;2024-01-11T04:48:42;18.80;34.20
6986;DHT22;3533;51.246;6.850;2024-01-11T04:51:08;18.80;34.20
6986;DHT22;3533;51.246;6.850;2024-01-11T04:53:37;18.80;34.20
6986;DHT22;3533;51.246;6.850;2024-01-11T04:56:03;18.80;34.20
6986;DHT22;3533;51.246;6.850;2024-01-11T04:58:29;18.80;34.20
6986;DHT22;3533;51.246;6.850;2024-01-11T05:00:54;18.80;34.20
6986;DHT22;3533;51.246;6.850;2024-01-11T05:03:20;18.80;34.20
6986;DHT22;3533;51.246;6.850;2024-01-11T05:05:45;18.90;34.20
6986;DHT22;3533;51.246;6.850;2024-01-11T05:08:11;18.80;34.10
6986;DHT22;3533;51.246;6.850;2024-01-11T05:10:37;18.90;34.20
6986;DHT22;3533;51.246;6.850;2024-01-11T05:13:02;18.90;34.20
6986;DHT22;3533;51.246;6.850;2024-01-11T05:15:28;18.90;34.10
6986;DHT22;3533;51.246;6.850;2024-01-11T05:17:55;18.90;34.60
6986;DHT22;3533;51.246;6.850;2024-01-11T05:20:22;18.90;34.10
6986;DHT22;3533;51.246;6.850;2024-01-11T05:22:47;18.90;34.00
6986;DHT22;3533;51.246;6.850;2024-01-11T05:25:13;18.90;33.90
6986;DHT22;3533;51.246;6.850;2024-01-11T05:27:39;18.90;33.90
6986;DHT22;3533;51.246;6.850;2024-01-11T05:30:05;18.90;33.80
6986;DHT22;3533;51.246;6.850;2024-01-11T05:32:31;18.90;33.80
6986;DHT22;3533;51.246;6.850;2024-01-11T05:34:57;18.90;33.80
6986;DHT22;3533;51.246;6.850;2024-01-11T05:37:22;18.90;33.80
6986;DHT22;3533;51.246;6.850;2024-01-11T05:39:48;19.00;33.80
6986;DHT22;3533;51.246;6.850;2024-01-11T05:42:13;18.90;33.70
6986;DHT22;3533;51.246;6.850;2024-01-11T05:44:39;18.90;33.70
6986;DHT22;3533;51.246;6.850;2024-01-11T05:47:04;18.90;33.70
6986;DHT22;3533;51.246;6.850;2024-01-11T05:49:30;18.90;33.70
6986;DHT22;3533;51.246;6.850;2024-01-11T05:51:56;18.90;33.70
6986;DHT22;3533;51.246;6.850;2024-01-11T05:54:21;18.90;33.80
6986;DHT22;3533;51.246;6.850;2024-01-11T05:56:47;18.90;33.70
6986;DHT22;3533;51.246;6.850;2024-01-11T05:59:13;18.90;33.80
6986;DHT22;3533;51.246;6.850;2024-01-11T06:01:41;18.90;33.80
6986;DHT22;3533;51.246;6.850;2024-01-11T06:04:08;18.90;33.80
6986;DHT22;3533;51.246;6.850;2024-01-11T06:06:33;18.90;33.70
6986;DHT22;3533;51.246;6.850;2024-01-11T06:08:59;18.90;33.70
6986;DHT22;3533;51.246;6.850;2024-01-11T06:11:24;18.90;33.70
6986;DHT22;3533;51.246;6.850;2024-01-11T06:13:50;18.90;33.80
6986;DHT22;3533;51.246;6.850;2024-01-11T06:16:16;18.90;33.80
6986;DHT22;3533;51.246;6.850;2024-01-11T06:18:41;18.90;33.80
6986;DHT22;3533;51.246;6.850;2024-01-11T06:21:07;18.90;33.80
6986;DHT22;3533;51.246;6.850;2024-01-11T06:23:32;18.90;33.80
6986;DHT22;3533;51.246;6.850;2024-01-11T06:25:58;18.90;33.80
6986;DHT22;3533;51.246;6.850;2024-01-11T06:28:23;18.90;33.80
6986;DHT22;3533;51.246;6.850;2024-01-11T06:30:49;18.90;33.80
6986;DHT22;3533;51.246;6.850;2024-01-11T06:33:15;18.90;33.80
6986;DHT22;3533;51.246;6.850;2024-01-11T06:35:40;18.90;33.80
6986;DHT22;3533;51.246;6.850;2024-01-11T06:38:06;18.90;33.80
6986;DHT22;3533;51.246;6.850;2024-01-11T06:40:31;18.90;33.70
6986;DHT22;3533;51.246;6.850;2024-01-11T06:42:57;18.90;33.80
6986;DHT22;3533;51.246;6.850;2024-01-11T06:45:23;18.90;33.80
6986;DHT22;3533;51.246;6.850;2024-01-11T06:47:48;18.90;33.80
6986;DHT22;3533;51.246;6.850;2024-01-11T06:50:14;18.90;33.80
6986;DHT22;3533;51.246;6.850;2024-01-11T06:52:40;18.90;33.80
6986;DHT22;3533;51.246;6.850;2024-01-11T06:55:06;18.90;33.80
6986;DHT22;3533;51.246;6.850;2024-01-11T06:57:31;18.90;33.80
6986;DHT22;3533;51.246;6.850;2024-01-11T06:59:57;18.90;33.80
6986;DHT22;3533;51.246;6.850;2024-01-11T07:02:22;18.90;33.80
6986;DHT22;3533;51.246;6.850;2024-01-11T07:04:48;18.90;33.80
6986;DHT22;3533;51.246;6.850;2024-01-11T07:07:13;18.90;33.80
6986;DHT22;3533;51.246;6.850;2024-01-11T07:09:39;18.90;33.80
6986;DHT22;3533;51.246;6.850;2024-01-11T07:12:05;18.90;33.70
6986;DHT22;3533;51.246;6.850;2024-01-11T07:14:30;18.90;33.70
6986;DHT22;3533;51.246;6.850;2024-01-11T07:16:56;18.90;33.70
6986;DHT22;3533;51.246;6.850;2024-01-11T07:19:22;18.90;33.80
6986;DHT22;3533;51.246;6.850;2024-01-11T07:21:47;18.90;33.70
6986;DHT22;3533;51.246;6.850;2024-01-11T07:24:13;18.90;33.70
6986;DHT22;3533;51.246;6.850;2024-01-11T07:26:38;18.90;33.70
6986;DHT22;3533;51.246;6.850;2024-01-11T07:29:04;18.90;33.70
6986;DHT22;3533;51.246;6.850;2024-01-11T07:31:30;18.90;33.70
6986;DHT22;3533;51.246;6.850;2024-01-11T07:33:55;18.90;33.70
6986;DHT22;3533;51.246;6.850;2024-01-11T07:36:21;18.90;33.70
6986;DHT22;3533;51.246;6.850;2024-01-11T07:38:47;18.90;33.60
6986;DHT22;3533;51.246;6.850;2024-01-11T07:41:13;18.90;33.60
6986;DHT22;3533;51.246;6.850;2024-01-11T07:43:40;18.90;33.60
6986;DHT22;3533;51.246;6.850;2024-01-11T07:46:05;18.90;33.60
6986;DHT22;3533;51.246;6.850;2024-01-11T07:48:32;18.90;33.60
6986;DHT22;3533;51.246;6.850;2024-01-11T07:50:59;18.90;33.60
6986;DHT22;3533;51.246;6.850;2024-01-11T07:53:25;18.90;33.60
6986;DHT22;3533;51.246;6.850;2024-01-11T07:55:51;18.90;33.50
6986;DHT22;3533;51.246;6.850;2024-01-11T07:58:17;18.90;34.30
6986;DHT22;3533;51.246;6.850;2024-01-11T08:00:42;18.90;33.50
6986;DHT22;3533;51.246;6.850;2024-01-11T08:03:08;18.90;33.50
6986;DHT22;3533;51.246;6.850;2024-01-11T08:05:34;18.90;33.50
6986;DHT22;3533;51.246;6.850;2024-01-11T08:07:59;18.90;33.50
6986;DHT22;3533;51.246;6.850;2024-01-11T08:10:28;18.90;33.50
6986;DHT22;3533;51.246;6.850;2024-01-11T08:12:53;18.90;33.50
6986;DHT22;3533;51.246;6.850;2024-01-11T08:15:20;18.90;33.50
6986;DHT22;3533;51.246;6.850;2024-01-11T08:17:45;18.90;33.50
6986;DHT22;3533;51.246;6.850;2024-01-11T08:20:11;18.90;33.60
6986;DHT22;3533;51.246;6.850;2024-01-11T08:22:43;18.90;33.50
6986;DHT22;3533;51.246;6.850;2024-01-11T08:25:09;18.80;33.40
6986;DHT22;3533;51.246;6.850;2024-01-11T08:27:35;18.80;33.40
6986;DHT22;3533;51.246;6.850;2024-01-11T08:30:01;18.80;33.40
6986;DHT22;3533;51.246;6.850;2024-01-11T08:32:27;18.80;33.40
6986;DHT22;3533;51.246;6.850;2024-01-11T08:34:53;18.80;33.40
6986;DHT22;3533;51.246;6.850;2024-01-11T08:37:19;18.80;33.40
6986;DHT22;3533;51.246;6.850;2024-01-11T08:39:45;18.80;33.40
6986;DHT22;3533;51.246;6.850;2024-01-11T08:42:11;18.80;33.40
6986;DHT22;3533;51.246;6.850;2024-01-11T08:44:44;18.80;33.40
6986;DHT22;3533;51.246;6.850;2024-01-11T08:47:09;18.80;33.40
6986;DHT22;3533;51.246;6.850;2024-01-11T08:49:39;18.80;33.40
6986;DHT22;3533;51.246;6.850;2024-01-11T08:52:05;18.80;33.40
6986;DHT22;3533;51.246;6.850;2024-01-11T08:54:31;18.80;33.40
6986;DHT22;3533;51.246;6.850;2024-01-11T08:56:58;18.80;33.30
6986;DHT22;3533;51.246;6.850;2024-01-11T08:59:24;18.80;33.30
6986;DHT22;3533;51.246;6.850;2024-01-11T09:01:51;18.80;34.10
6986;DHT22;3533;51.246;6.850;2024-01-11T09:04:17;18.80;33.30
6986;DHT22;3533;51.246;6.850;2024-01-11T09:06:43;18.80;33.40
6986;DHT22;3533;51.246;6.850;2024-01-11T09:09:09;18.80;33.30
6986;DHT22;3533;51.246;6.850;2024-01-11T09:11:36;18.80;33.30
6986;DHT22;3533;51.246;6.850;2024-01-11T09:14:01;18.80;33.30
6986;DHT22;3533;51.246;6.850;2024-01-11T09:16:28;18.80;33.40
6986;DHT22;3533;51.246;6.850;2024-01-11T09:18:54;18.80;33.30
6986;DHT22;3533;51.246;6.850;2024-01-11T09:21:19;18.80;33.30
6986;DHT22;3533;51.246;6.850;2024-01-11T09:23:45;18.80;33.30
6986;DHT22;3533;51.246;6.850;2024-01-11T09:26:10;18.80;33.30
6986;DHT22;3533;51.246;6.850;2024-01-11T09:28:36;18.80;33.30
6986;DHT22;3533;51.246;6.850;2024-01-11T09:31:02;18.80;33.30
6986;DHT22;3533;51.246;6.850;2024-01-11T09:33:28;18.80;33.30
6986;DHT22;3533;51.246;6.850;2024-01-11T09:35:54;18.80;33.30
6986;DHT22;3533;51.246;6.850;2024-01-11T09:38:21;18.80;33.30
6986;DHT22;3533;51.246;6.850;2024-01-11T09:40:59;18.80;33.30
6986;DHT22;3533;51.246;6.850;2024-01-11T09:43:27;18.80;33.40
6986;DHT22;3533;51.246;6.850;2024-01-11T09:45:54;18.80;33.30
6986;DHT22;3533;51.246;6.850;2024-01-11T09:48:20;18.80;33.40
6986;DHT22;3533;51.246;6.850;2024-01-11T09:50:47;18.80;33.30
6986;DHT22;3533;51.246;6.850;2024-01-11T09:53:13;18.80;33.30
6986;DHT22;3533;51.246;6.850;2024-01-11T09:55:39;18.80;33.40
6986;DHT22;3533;51.246;6.850;2024-01-11T09:58:06;18.80;33.30
6986;DHT22;3533;51.246;6.850;2024-01-11T10:00:32;18.80;33.30
6986;DHT22;3533;51.246;6.850;2024-01-11T10:02:58;18.80;33.30
6986;DHT22;3533;51.246;6.850;2024-01-11T10:05:23;18.80;33.30
6986;DHT22;3533;51.246;6.850;2024-01-11T10:07:49;18.80;33.30
6986;DHT22;3533;51.246;6.850;2024-01-11T10:10:15;18.80;33.30
6986;DHT22;3533;51.246;6.850;2024-01-11T10:12:41;18.80;33.30
6986;DHT22;3533;51.246;6.850;2024-01-11T10:15:08;18.80;33.30
6986;DHT22;3533;51.246;6.850;2024-01-11T10:17:45;18.80;33.30
6986;DHT22;3533;51.246;6.850;2024-01-11T10:20:12;18.80;33.40
6986;DHT22;3533;51.246;6.850;2024-01-11T10:22:43;18.80;33.30
6986;DHT22;3533;51.246;6.850;2024-01-11T10:25:12;18.80;33.40
6986;DHT22;3533;51.246;6.850;2024-01-11T10:27:43;18.80;33.30
6986;DHT22;3533;51.246;6.850;2024-01-11T10:30:13;18.80;33.30
6986;DHT22;3533;51.246;6.850;2024-01-11T10:32:41;18.80;33.30
6986;DHT22;3533;51.246;6.850;2024-01-11T10:35:06;18.80;33.30
6986;DHT22;3533;51.246;6.850;2024-01-11T10:37:32;18.80;33.30
6986;DHT22;3533;51.246;6.850;2024-01-11T10:40:05;18.80;33.30
6986;DHT22;3533;51.246;6.850;2024-01-11T10:42:51;18.80;33.30
6986;DHT22;3533;51.246;6.850;2024-01-11T10:45:19;18.80;33.30
6986;DHT22;3533;51.246;6.850;2024-01-11T10:47:51;18.80;33.30
6986;DHT22;3533;51.246;6.850;2024-01-11T10:50:18;18.80;33.30
6986;DHT22;3533;51.246;6.850;2024-01-11T10:52:57;18.80;33.30
6986;DHT22;3533;51.246;6.850;2024-01-11T10:55:30;18.80;33.30
6986;DHT22;3533;51.246;6.850;2024-01-11T10:57:57;18.80;33.20
6986;DHT22;3533;51.246;6.850;2024-01-11T11:00:24;18.80;33.30
6986;DHT22;3533;51.246;6.850;2024-01-11T11:02:50;18.80;33.30
6986;DHT22;3533;51.246;6.850;2024-01-11T11:05:18;18.80;33.20
6986;DHT22;3533;51.246;6.850;2024-01-11T11:07:45;18.80;33.20
6986;DHT22;3533;51.246;6.850;2024-01-11T11:10:12;18.80;33.30
6986;DHT22;3533;51.246;6.850;2024-01-11T11:12:40;18.80;33.20
6986;DHT22;3533;51.246;6.850;2024-01-11T11:15:07;18.80;33.20
6986;DHT22;3533;51.246;6.850;2024-01-11T11:17:33;18.80;33.30
6986;DHT22;3533;51.246;6.850;2024-01-11T11:19:59;18.80;33.10
6986;DHT22;3533;51.246;6.850;2024-01-11T11:22:27;18.90;33.20
6986;DHT22;3533;51.246;6.850;2024-01-11T11:25:09;18.80;33.20
6986;DHT22;3533;51.246;6.850;2024-01-11T11:27:38;18.90;33.20
6986;DHT22;3533;51.246;6.850;2024-01-11T11:30:04;18.80;33.20
6986;DHT22;3533;51.246;6.850;2024-01-11T11:32:38;18.80;33.20
6986;DHT22;3533;51.246;6.850;2024-01-11T11:35:05;18.80;33.20
6986;DHT22;3533;51.246;6.850;2024-01-11T11:37:31;18.90;33.20
6986;DHT22;3533;51.246;6.850;2024-01-11T11:39:59;18.80;33.20
6986;DHT22;3533;51.246;6.850;2024-01-11T11:42:26;18.90;33.20
6986;DHT22;3533;51.246;6.850;2024-01-11T11:44:51;18.80;33.20
6986;DHT22;3533;51.246;6.850;2024-01-11T11:47:22;18.80;33.20
6986;DHT22;3533;51.246;6.850;2024-01-11T11:50:08;18.90;33.30
6986;DHT22;3533;51.246;6.850;2024-01-11T11:52:38;18.90;33.20
6986;DHT22;3533;51.246;6.850;2024-01-11T11:55:06;18.80;33.20
6986;DHT22;3533;51.246;6.850;2024-01-11T11:57:31;18.80;33.20
6986;DHT22;3533;51.246;6.850;2024-01-11T11:59:59;18.90;33.20
6986;DHT22;3533;51.246;6.850;2024-01-11T12:02:25;18.90;33.20
6986;DHT22;3533;51.246;6.850;2024-01-11T12:04:52;18.90;33.20
6986;DHT22;3533;51.246;6.850;2024-01-11T12:07:17;18.90;33.20
6986;DHT22;3533;51.246;6.850;2024-01-11T12:09:43;18.90;34.00
6986;DHT22;3533;51.246;6.850;2024-01-11T12:12:09;18.90;33.30
6986;DHT22;3533;51.246;6.850;2024-01-11T12:14:35;18.90;33.20
6986;DHT22;3533;51.246;6.850;2024-01-11T12:17:01;18.90;33.20
6986;DHT22;3533;51.246;6.850;2024-01-11T12:19:28;18.90;33.20
6986;DHT22;3533;51.246;6.850;2024-01-11T12:21:54;18.90;33.20
6986;DHT22;3533;51.246;6.850;2024-01-11T12:24:20;18.90;33.30
6986;DHT22;3533;51.246;6.850;2024-01-11T12:26:49;18.90;33.30
6986;DHT22;3533;51.246;6.850;2024-01-11T12:29:17;18.90;33.20
6986;DHT22;3533;51.246;6.850;2024-01-11T12:31:44;18.90;33.30
6986;DHT22;3533;51.246;6.850;2024-01-11T12:34:11;18.90;33.30
6986;DHT22;3533;51.246;6.850;2024-01-11T12:36:37;18.90;33.30
6986;DHT22;3533;51.246;6.850;2024-01-11T12:39:03;18.90;33.30
6986;DHT22;3533;51.246;6.850;2024-01-11T12:41:32;18.90;33.50
6986;DHT22;3533;51.246;6.850;2024-01-11T12:43:57;18.90;33.50
6986;DHT22;3533;51.246;6.850;2024-01-11T12:46:23;18.90;33.50
6986;DHT22;3533;51.246;6.850;2024-01-11T12:48:49;18.90;33.50
6986;DHT22;3533;51.246;6.850;2024-01-11T12:51:16;18.90;33.50
6986;DHT22;3533;51.246;6.850;2024-01-11T12:53:45;18.90;33.50
6986;DHT22;3533;51.246;6.850;2024-01-11T12:56:14;18.90;33.50
6986;DHT22;3533;51.246;6.850;2024-01-11T12:58:40;18.90;33.50
6986;DHT22;3533;51.246;6.850;2024-01-11T13:01:06;18.90;33.50
6986;DHT22;3533;51.246;6.850;2024-01-11T13:03:39;18.90;33.60
6986;DHT22;3533;51.246;6.850;2024-01-11T13:06:05;18.90;33.60
6986;DHT22;3533;51.246;6.850;2024-01-11T13:08:31;18.90;33.60
6986;DHT22;3533;51.246;6.850;2024-01-11T13:10:57;18.90;33.60
6986;DHT22;3533;51.246;6.850;2024-01-11T13:13:23;18.90;33.60
6986;DHT22;3533;51.246;6.850;2024-01-11T13:15:48;18.90;33.60
6986;DHT22;3533;51.246;6.850;2024-01-11T13:18:14;18.90;33.60
6986;DHT22;3533;51.246;6.850;2024-01-11T13:20:40;18.90;33.70
6986;DHT22;3533;51.246;6.850;2024-01-11T13:23:19;18.90;33.70
6986;DHT22;3533;51.246;6.850;2024-01-11T13:25:46;18.90;33.70
6986;DHT22;3533;51.246;6.850;2024-01-11T13:28:13;18.90;33.70
6986;DHT22;3533;51.246;6.850;2024-01-11T13:30:39;18.90;33.70
6986;DHT22;3533;51.246;6.850;2024-01-11T13:33:05;18.90;33.70
6986;DHT22;3533;51.246;6.850;2024-01-11T13:35:34;18.90;33.80
6986;DHT22;3533;51.246;6.850;2024-01-11T13:37:59;18.90;33.70
6986;DHT22;3533;51.246;6.850;2024-01-11T13:40:25;18.90;33.70
6986;DHT22;3533;51.246;6.850;2024-01-11T13:42:54;18.90;33.70
6986;DHT22;3533;51.246;6.850;2024-01-11T13:45:19;18.90;33.80
6986;DHT22;3533;51.246;6.850;2024-01-11T13:47:45;18.90;33.80
6986;DHT22;3533;51.246;6.850;2024-01-11T13:50:10;18.90;33.80
6986;DHT22;3533;51.246;6.850;2024-01-11T13:52:37;18.90;33.80
6986;DHT22;3533;51.246;6.850;2024-01-11T13:55:03;18.90;33.80
6986;DHT22;3533;51.246;6.850;2024-01-11T13:57:29;18.90;33.80
6986;DHT22;3533;51.246;6.850;2024-01-11T13:59:55;18.90;33.80
6986;DHT22;3533;51.246;6.850;2024-01-11T14:02:21;18.90;33.80
6986;DHT22;3533;51.246;6.850;2024-01-11T14:04:46;18.90;33.80
6986;DHT22;3533;51.246;6.850;2024-01-11T14:07:12;18.90;34.60
6986;DHT22;3533;51.246;6.850;2024-01-11T14:09:37;18.80;33.70
6986;DHT22;3533;51.246;6.850;2024-01-11T14:12:03;18.90;33.80
6986;DHT22;3533;51.246;6.850;2024-01-11T14:14:29;18.90;33.80
6986;DHT22;3533;51.246;6.850;2024-01-11T14:16:54;18.80;33.70
6986;DHT22;3533;51.246;6.850;2024-01-11T14:19:20;18.80;33.70
6986;DHT22;3533;51.246;6.850;2024-01-11T14:21:46;18.90;33.80
6986;DHT22;3533;51.246;6.850;2024-01-11T14:24:11;18.80;33.70
6986;DHT22;3533;51.246;6.850;2024-01-11T14:26:37;18.80;33.70
6986;DHT22;3533;51.246;6.850;2024-01-11T14:29:03;18.80;33.60
6986;DHT22;3533;51.246;6.850;2024-01-11T14:31:29;18.80;33.70
6986;DHT22;3533;51.246;6.850;2024-01-11T14:33:54;18.80;33.70
6986;DHT22;3533;51.246;6.850;2024-01-11T14:36:20;18.80;33.70
6986;DHT22;3533;51.246;6.850;2024-01-11T14:38:46;18.80;33.60
6986;DHT22;3533;51.246;6.850;2024-01-11T14:41:13;18.80;33.70
6986;DHT22;3533;51.246;6.850;2024-01-11T14:43:39;18.80;33.70
6986;DHT22;3533;51.246;6.850;2024-01-11T14:46:04;18.80;33.70
6986;DHT22;3533;51.246;6.850;2024-01-11T14:48:30;18.80;33.60
6986;DHT22;3533;51.246;6.850;2024-01-11T14:50:57;18.80;33.70
6986;DHT22;3533;51.246;6.850;2024-01-11T14:53:22;18.80;33.70
6986;DHT22;3533;51.246;6.850;2024-01-11T14:55:49;18.90;33.80
6986;DHT22;3533;51.246;6.850;2024-01-11T14:58:15;18.80;33.60
6986;DHT22;3533;51.246;6.850;2024-01-11T15:00:41;18.80;33.70
6986;DHT22;3533;51.246;6.850;2024-01-11T15:03:07;18.80;33.70
6986;DHT22;3533;51.246;6.850;2024-01-11T15:05:32;18.80;33.70
6986;DHT22;3533;51.246;6.850;2024-01-11T15:07:58;18.80;33.70
6986;DHT22;3533;51.246;6.850;2024-01-11T15:10:24;18.80;33.70
6986;DHT22;3533;51.246;6.850;2024-01-11T15:12:50;18.80;33.70
6986;DHT22;3533;51.246;6.850;2024-01-11T15:15:15;18.80;33.70
6986;DHT22;3533;51.246;6.850;2024-01-11T15:17:41;18.80;33.70
6986;DHT22;3533;51.246;6.850;2024-01-11T15:20:07;18.80;33.70
6986;DHT22;3533;51.246;6.850;2024-01-11T15:22:33;18.80;33.60
6986;DHT22;3533;51.246;6.850;2024-01-11T15:24:58;18.80;33.60
6986;DHT22;3533;51.246;6.850;2024-01-11T15:27:24;18.80;34.30
6986;DHT22;3533;51.246;6.850;2024-01-11T15:29:49;18.80;33.50
6986;DHT22;3533;51.246;6.850;2024-01-11T15:32:18;18.80;33.50
6986;DHT22;3533;51.246;6.850;2024-01-11T15:34:43;18.80;34.30
6986;DHT22;3533;51.246;6.850;2024-01-11T15:37:09;18.80;33.40
6986;DHT22;3533;51.246;6.850;2024-01-11T15:39:34;18.80;33.40
6986;DHT22;3533;51.246;6.850;2024-01-11T15:42:01;18.80;33.40
6986;DHT22;3533;51.246;6.850;2024-01-11T15:44:28;18.80;33.30
6986;DHT22;3533;51.246;6.850;2024-01-11T15:46:54;18.80;34.10
6986;DHT22;3533;51.246;6.850;2024-01-11T15:49:20;18.80;33.20
6986;DHT22;3533;51.246;6.850;2024-01-11T15:51:46;18.80;33.20
6986;DHT22;3533;51.246;6.850;2024-01-11T15:54:12;18.80;33.20
6986;DHT22;3533;51.246;6.850;2024-01-11T15:56:38;18.80;33.10